Time;durP1;ratioP1;P1;durP2;ratioP2;P2;SDS_P1;SDS_P2;PMS_P1;PMS_P2;Temp;Humidity;BMP_temperature;BMP_pressure;BME280_temperature;BME280_humidity;BME280_pressure;Samples;Min_cycle;Max_cycle;Signal;HPM_P1;HPM_P2
2021/05/03 00:00:43;;;;;;;1.87;1.67;;;;;;;8.81;63.03;97802.12;1754261;79;21038;-76
2021/05/03 00:03:10;;;;;;;1.65;1.45;;;;;;;8.80;63.30;97812.00;1774495;79;20902;-76
2021/05/03 00:05:45;;;;;;;2.15;1.70;;;;;;;8.77;63.26;97812.70;1797628;79;21362;-76
2021/05/03 00:08:12;;;;;;;2.35;1.47;;;;;;;8.77;63.25;97816.72;1799523;79;20984;-76
2021/05/03 00:10:41;;;;;;;2.37;1.90;;;;;;;8.77;63.30;97819.41;1800664;79;21008;-75
2021/05/03 00:13:10;;;;;;;2.05;1.90;;;;;;;8.78;63.60;97820.63;1804758;79;20922;-76
2021/05/03 00:15:39;;;;;;;1.85;1.65;;;;;;;8.81;63.75;97827.11;1764627;78;20911;-77
2021/05/03 00:18:08;;;;;;;1.87;1.60;;;;;;;8.83;63.71;97834.54;1795047;79;20910;-77
2021/05/03 00:20:36;;;;;;;1.98;1.77;;;;;;;8.85;63.80;97839.78;1811022;78;21080;-77
2021/05/03 00:23:10;;;;;;;2.02;1.82;;;;;;;8.86;63.65;97832.98;1808878;77;21120;-78
2021/05/03 00:25:40;;;;;;;2.85;2.55;;;;;;;8.85;63.55;97845.98;1797022;78;21004;-75
2021/05/03 00:28:11;;;;;;;1.60;1.50;;;;;;;8.83;63.52;97835.87;1797766;78;20923;-77
2021/05/03 00:30:39;;;;;;;2.00;1.85;;;;;;;8.84;63.43;97841.62;1769739;78;21355;-76
2021/05/03 00:33:11;;;;;;;3.25;1.90;;;;;;;8.84;62.92;97843.42;1776856;78;20993;-76
2021/05/03 00:35:39;;;;;;;2.20;2.00;;;;;;;8.80;62.75;97849.98;1775738;79;20903;-75
2021/05/03 00:38:07;;;;;;;2.10;1.85;;;;;;;8.81;62.95;97854.34;1794366;78;20946;-76
2021/05/03 00:40:36;;;;;;;2.35;2.10;;;;;;;8.82;63.06;97864.11;1791297;78;21052;-76
2021/05/03 00:43:04;;;;;;;1.72;1.50;;;;;;;8.81;62.86;97857.02;1775637;78;22260;-76
2021/05/03 00:45:33;;;;;;;2.58;1.70;;;;;;;8.79;62.36;97862.98;1787505;78;21044;-77
2021/05/03 00:48:04;;;;;;;2.15;1.90;;;;;;;8.80;62.57;97860.69;1806872;79;21455;-75
2021/05/03 00:50:32;;;;;;;2.20;2.00;;;;;;;8.79;62.31;97861.15;1805354;79;21012;-76
2021/05/03 00:53:00;;;;;;;2.80;2.47;;;;;;;8.79;62.15;97875.88;1787694;78;21457;-77
2021/05/03 00:55:27;;;;;;;2.00;1.80;;;;;;;8.79;61.95;97875.88;1778106;78;21334;-77
2021/05/03 00:57:56;;;;;;;3.12;2.27;;;;;;;8.77;61.83;97880.98;1784395;78;21025;-76
2021/05/03 01:00:25;;;;;;;3.50;1.70;;;;;;;8.75;62.08;97878.88;1785120;78;21029;-77
2021/05/03 01:02:53;;;;;;;3.17;2.05;;;;;;;8.75;61.96;97870.84;1797142;78;20919;-76
2021/05/03 01:05:21;;;;;;;1.65;1.55;;;;;;;8.73;61.83;97875.45;1802815;78;21549;-76
2021/05/03 01:07:49;;;;;;;5.25;1.90;;;;;;;8.74;61.62;97880.70;1803398;78;21358;-77
2021/05/03 01:10:20;;;;;;;2.10;1.90;;;;;;;8.73;61.85;97876.80;1773748;78;38589;-76
2021/05/03 01:12:49;;;;;;;2.00;1.90;;;;;;;8.72;61.41;97881.77;1786685;78;20946;-75
2021/05/03 01:15:22;;;;;;;1.87;1.75;;;;;;;8.70;61.20;97874.33;1802532;78;21009;-77
2021/05/03 01:17:50;;;;;;;2.52;2.17;;;;;;;8.67;61.21;97880.29;1801716;78;21927;-77
2021/05/03 01:20:20;;;;;;;3.17;1.90;;;;;;;8.65;61.19;97880.86;1755812;79;21276;-76
2021/05/03 01:22:47;;;;;;;1.57;1.47;;;;;;;8.63;61.07;97885.96;1795615;78;21068;-77
2021/05/03 01:25:15;;;;;;;2.65;2.30;;;;;;;8.62;61.41;97893.11;1809046;78;21056;-77
2021/05/03 01:27:45;;;;;;;1.72;1.62;;;;;;;8.59;61.88;97901.39;1769189;78;21135;-77
2021/05/03 01:30:16;;;;;;;2.12;1.92;;;;;;;8.58;62.00;97905.02;1794314;79;21511;-77
2021/05/03 01:32:44;;;;;;;3.47;2.17;;;;;;;8.55;62.44;97905.23;1803754;78;21338;-77
2021/05/03 01:35:14;;;;;;;2.02;1.82;;;;;;;8.52;62.43;97905.44;1770535;78;21693;-76
2021/05/03 01:37:42;;;;;;;2.40;2.12;;;;;;;8.50;62.42;97908.22;1809232;78;20938;-76
2021/05/03 01:40:11;;;;;;;2.20;1.85;;;;;;;8.52;62.51;97902.77;1809699;78;21325;-77
2021/05/03 01:42:39;;;;;;;2.12;1.92;;;;;;;8.52;62.43;97892.05;1805376;78;21021;-77
2021/05/03 01:45:08;;;;;;;2.45;2.25;;;;;;;8.48;62.08;97891.88;1799499;78;21441;-77
2021/05/03 01:47:37;;;;;;;2.80;2.27;;;;;;;8.46;62.00;97905.36;1794375;78;20945;-77
2021/05/03 01:50:06;;;;;;;2.30;2.10;;;;;;;8.46;62.05;97901.84;1801288;78;20950;-77
2021/05/03 01:52:36;;;;;;;2.58;2.37;;;;;;;8.43;62.08;97910.05;1809585;78;21629;-77
2021/05/03 01:55:05;;;;;;;3.25;3.02;;;;;;;8.40;61.92;97911.10;1802459;78;21024;-77
2021/05/03 01:57:33;;;;;;;2.77;2.58;;;;;;;8.37;61.82;97915.81;1800930;78;21601;-77
2021/05/03 02:00:01;;;;;;;3.10;2.45;;;;;;;8.34;61.85;97934.30;1784677;77;20955;-77
2021/05/03 02:02:28;;;;;;;3.70;2.90;;;;;;;8.31;61.94;97921.97;1782319;78;20895;-77
2021/05/03 02:04:57;;;;;;;3.58;3.27;;;;;;;8.26;61.70;97926.78;1793498;78;21060;-77
2021/05/03 02:07:25;;;;;;;2.70;2.50;;;;;;;8.26;61.53;97929.92;1794419;78;21032;-76
2021/05/03 02:09:54;;;;;;;3.55;2.72;;;;;;;8.23;61.29;97927.45;1803228;78;21362;-76
2021/05/03 02:12:22;;;;;;;3.17;2.87;;;;;;;8.22;61.48;97938.64;1773641;78;20966;-76
2021/05/03 02:14:50;;;;;;;2.98;2.72;;;;;;;8.21;61.43;97938.25;1793226;78;20925;-77
2021/05/03 02:17:17;;;;;;;4.28;3.27;;;;;;;8.18;61.29;97938.45;1807270;79;21065;-76
2021/05/03 02:19:49;;;;;;;3.47;3.17;;;;;;;8.14;61.30;97931.61;1770482;79;21562;-77
2021/05/03 02:22:20;;;;;;;4.47;2.72;;;;;;;8.10;61.25;97929.63;1782339;78;22246;-76
2021/05/03 02:24:49;;;;;;;3.10;2.87;;;;;;;8.07;61.25;97936.52;1797607;78;20946;-76
2021/05/03 02:27:17;;;;;;;3.42;3.12;;;;;;;8.02;60.89;97947.98;1791907;78;21608;-76
2021/05/03 02:29:45;;;;;;;3.47;3.17;;;;;;;8.04;61.08;97945.20;1779404;78;21021;-77
2021/05/03 02:32:15;;;;;;;2.92;2.40;;;;;;;8.04;61.14;97946.55;1800193;79;20993;-76
2021/05/03 02:34:42;;;;;;;2.92;2.70;;;;;;;8.04;60.81;97951.90;1808134;78;21838;-75
2021/05/03 02:37:09;;;;;;;2.45;2.20;;;;;;;8.02;60.28;97961.84;1790631;78;21116;-76
2021/05/03 02:39:42;;;;;;;2.72;2.40;;;;;;;8.01;60.17;97977.50;1757547;79;20931;-77
2021/05/03 02:42:12;;;;;;;3.08;2.77;;;;;;;7.99;60.30;97976.76;1795905;78;20937;-77
2021/05/03 02:44:43;;;;;;;2.85;2.55;;;;;;;8.01;60.31;97969.48;1751969;80;21372;-77
2021/05/03 02:47:11;;;;;;;3.12;2.92;;;;;;;8.00;60.56;97973.14;1766643;79;21375;-77
2021/05/03 02:49:39;;;;;;;2.80;2.50;;;;;;;7.98;60.22;97973.69;1793154;79;21550;-77
2021/05/03 02:52:12;;;;;;;2.92;2.55;;;;;;;7.96;60.09;97976.02;1795725;79;21521;-77
2021/05/03 02:54:40;;;;;;;3.35;3.05;;;;;;;7.93;60.16;97973.53;1801998;78;21462;-77
2021/05/03 02:57:08;;;;;;;3.17;2.83;;;;;;;7.90;60.08;97988.44;1788181;78;21530;-77
2021/05/03 02:59:37;;;;;;;2.85;2.65;;;;;;;7.89;60.29;97988.05;1773834;78;21210;-77
2021/05/03 03:02:05;;;;;;;3.08;2.62;;;;;;;7.89;60.66;97993.40;1787166;78;20961;-77
2021/05/03 03:04:33;;;;;;;3.42;3.02;;;;;;;7.90;60.76;97995.62;1793665;78;21049;-76
2021/05/03 03:07:03;;;;;;;2.85;2.65;;;;;;;7.90;60.98;97997.80;1788526;78;21971;-76
2021/05/03 03:09:33;;;;;;;3.45;3.15;;;;;;;7.90;61.13;97992.45;1806943;79;21533;-76
2021/05/03 03:12:02;;;;;;;3.05;2.60;;;;;;;7.92;61.35;97999.04;1806862;79;21200;-76
2021/05/03 03:14:30;;;;;;;3.40;3.10;;;;;;;7.90;61.25;97999.62;1796425;78;21010;-76
2021/05/03 03:16:59;;;;;;;2.95;2.75;;;;;;;7.91;61.32;98007.52;1799574;78;20894;-77
2021/05/03 03:19:27;;;;;;;4.45;3.42;;;;;;;7.90;61.45;98008.50;1760765;79;20938;-77
2021/05/03 03:21:56;;;;;;;3.27;2.98;;;;;;;7.91;61.67;98012.87;1808648;78;21609;-77
2021/05/03 03:24:25;;;;;;;3.62;2.62;;;;;;;7.92;61.80;98024.44;1769463;78;21303;-77
2021/05/03 03:26:52;;;;;;;2.77;2.58;;;;;;;7.92;61.92;98027.97;1781792;77;21045;-76
2021/05/03 03:29:21;;;;;;;2.50;2.30;;;;;;;7.93;61.88;98026.14;1788550;78;21025;-77
2021/05/03 03:31:50;;;;;;;3.45;3.22;;;;;;;7.94;62.08;98032.73;1796403;78;21061;-76
2021/05/03 03:34:17;;;;;;;3.33;3.10;;;;;;;7.96;62.19;98036.19;1799126;78;20950;-76
2021/05/03 03:36:47;;;;;;;2.87;2.67;;;;;;;8.00;62.12;98034.16;1799282;78;22814;-76
2021/05/03 03:39:16;;;;;;;3.75;2.92;;;;;;;8.01;61.97;98040.36;1806047;79;21494;-76
2021/05/03 03:41:43;;;;;;;3.33;3.02;;;;;;;8.02;61.94;98048.77;1796966;78;21704;-76
2021/05/03 03:44:15;;;;;;;3.05;2.80;;;;;;;8.03;61.87;98054.52;1806240;78;20977;-77
2021/05/03 03:46:46;;;;;;;3.50;3.20;;;;;;;8.05;61.82;98056.59;1801802;78;20990;-76
2021/05/03 03:49:14;;;;;;;3.40;2.98;;;;;;;8.05;62.01;98061.95;1797863;79;21325;-76
2021/05/03 03:51:42;;;;;;;3.42;3.12;;;;;;;8.03;61.84;98060.70;1811424;78;20957;-76
2021/05/03 03:54:10;;;;;;;3.70;3.37;;;;;;;8.02;61.94;98060.31;1756193;80;21523;-77
2021/05/03 03:56:40;;;;;;;4.03;3.65;;;;;;;8.02;62.23;98068.83;1772016;78;20918;-77
2021/05/03 03:59:10;;;;;;;3.77;3.47;;;;;;;8.01;62.61;98073.33;1807952;78;21068;-78
2021/05/03 04:01:37;;;;;;;3.62;3.25;;;;;;;8.04;62.37;98076.27;1808521;79;21371;-77
2021/05/03 04:04:15;;;;;;;3.75;3.45;;;;;;;8.05;62.43;98073.98;1794400;78;20926;-77
2021/05/03 04:06:50;;;;;;;3.50;3.20;;;;;;;8.07;62.51;98076.07;1793967;78;21160;-77
2021/05/03 04:09:26;;;;;;;;;;;;;;;8.06;62.55;98071.20;1787596;77;20966;-78
2021/05/03 04:25:20;;;;;;;2.42;2.22;;;;;;;8.02;61.85;98087.06;1743850;78;21070;-77
2021/05/03 04:27:44;;;;;;;;;;;;;;;8.03;61.39;98081.25;1784163;78;21823;-77
2021/05/03 04:30:15;;;;;;;2.12;1.98;;;;;;;8.04;61.03;98094.98;1709559;81;20209;-76
2021/05/03 04:32:42;;;;;;;2.50;2.30;;;;;;;8.04;60.72;98091.86;1722262;82;21544;-76
2021/05/03 04:35:11;;;;;;;2.77;2.58;;;;;;;8.06;60.90;98098.45;1711352;82;21130;-76
2021/05/03 04:37:41;;;;;;;2.47;2.27;;;;;;;8.06;61.16;98104.64;1735041;82;20898;-78
2021/05/03 04:40:11;;;;;;;2.10;2.00;;;;;;;8.09;61.12;98102.27;1706422;82;21479;-78
2021/05/03 04:42:39;;;;;;;3.87;2.98;;;;;;;8.10;60.58;98098.61;1725530;82;21021;-78
2021/05/03 04:45:14;;;;;;;2.67;1.90;;;;;;;8.11;60.79;98105.69;1741573;81;21049;-77
2021/05/03 04:47:43;;;;;;;2.00;1.90;;;;;;;8.16;61.22;98105.40;1718510;82;21002;-78
2021/05/03 04:50:15;;;;;;;1.90;1.67;;;;;;;8.16;60.56;98104.91;1741903;82;21006;-78
2021/05/03 04:52:42;;;;;;;2.75;2.55;;;;;;;8.16;60.04;98106.73;1728669;82;22411;-78
2021/05/03 04:55:10;;;;;;;2.40;1.90;;;;;;;8.12;59.97;98105.59;1737528;82;21177;-78
2021/05/03 04:57:42;;;;;;;1.93;1.73;;;;;;;8.14;59.78;98114.86;1728849;82;20967;-78
2021/05/03 05:00:11;;;;;;;1.70;1.60;;;;;;;8.15;60.25;98113.88;1728797;80;21815;-78
2021/05/03 05:02:38;;;;;;;2.58;2.25;;;;;;;8.18;60.31;98118.19;1755177;80;21020;-77
2021/05/03 05:05:10;;;;;;;1.90;1.80;;;;;;;8.19;60.51;98116.75;1745531;79;21371;-77
2021/05/03 05:07:38;;;;;;;1.95;1.65;;;;;;;8.23;60.70;98125.43;1748638;80;21023;-78
2021/05/03 05:10:08;;;;;;;2.17;1.80;;;;;;;8.24;60.68;98121.31;1742421;80;21121;-76
2021/05/03 05:12:37;;;;;;;2.35;1.82;;;;;;;8.28;61.01;98118.84;1764388;80;21087;-78
2021/05/03 05:15:06;;;;;;;2.25;2.12;;;;;;;8.30;60.27;98133.45;1756913;80;20983;-78
2021/05/03 05:17:36;;;;;;;4.08;2.17;;;;;;;8.31;60.38;98133.36;1772709;80;21477;-78
2021/05/03 05:20:09;;;;;;;2.12;1.92;;;;;;;8.32;60.35;98129.73;1752121;80;20960;-77
2021/05/03 05:22:38;;;;;;;4.85;2.70;;;;;;;8.36;60.72;98134.89;1774394;80;21222;-77
2021/05/03 05:25:08;;;;;;;2.27;2.08;;;;;;;8.36;60.24;98124.19;1755432;80;21031;-77
2021/05/03 05:27:36;;;;;;;2.50;2.30;;;;;;;8.38;60.07;98137.83;1752814;80;21011;-77
2021/05/03 05:30:05;;;;;;;2.10;1.92;;;;;;;8.36;59.55;98138.41;1800128;78;21361;-77
2021/05/03 05:32:33;;;;;;;2.42;2.10;;;;;;;8.37;59.81;98141.94;1791060;78;21480;-80
2021/05/03 05:35:01;;;;;;;2.10;1.90;;;;;;;8.33;59.37;98128.76;1793309;78;20956;-78
2021/05/03 05:37:28;;;;;;;2.10;1.90;;;;;;;8.31;59.51;98153.92;1797343;78;21618;-77
2021/05/03 05:40:01;;;;;;;2.37;2.15;;;;;;;8.28;60.04;98152.28;1797530;78;21160;-77
2021/05/03 05:42:29;;;;;;;4.00;2.55;;;;;;;8.30;60.21;98146.34;1807760;79;21151;-77
2021/05/03 05:44:56;;;;;;;2.42;2.08;;;;;;;8.31;60.55;98145.89;1793033;78;21122;-78
2021/05/03 05:47:26;;;;;;;2.00;1.90;;;;;;;8.27;60.69;98156.40;1804885;79;21629;-78
2021/05/03 05:49:54;;;;;;;2.50;2.30;;;;;;;8.25;60.74;98139.59;1804280;78;21632;-78
2021/05/03 05:52:22;;;;;;;2.87;2.67;;;;;;;8.24;59.98;98152.58;1808780;78;20903;-78
2021/05/03 05:54:52;;;;;;;3.35;2.65;;;;;;;8.24;60.39;98148.08;1809744;79;21322;-79
2021/05/03 05:57:20;;;;;;;6.10;3.67;;;;;;;8.24;60.12;98161.45;1766583;79;20950;-79
2021/05/03 05:59:47;;;;;;;3.75;3.35;;;;;;;8.24;60.41;98164.13;1792836;78;21077;-77
2021/05/03 06:02:17;;;;;;;3.20;2.90;;;;;;;8.25;60.35;98154.31;1792824;78;21048;-78
2021/05/03 06:04:45;;;;;;;3.40;3.08;;;;;;;8.25;60.11;98163.67;1792228;78;20982;-76
2021/05/03 06:07:12;;;;;;;2.92;2.72;;;;;;;8.22;59.97;98166.05;1798772;77;21357;-79
2021/05/03 06:09:44;;;;;;;3.33;3.08;;;;;;;8.24;60.19;98164.62;1767732;79;21143;-78
2021/05/03 06:12:12;;;;;;;3.95;3.65;;;;;;;8.22;60.70;98167.39;1792934;78;21101;-78
2021/05/03 06:14:41;;;;;;;5.00;3.60;;;;;;;8.23;61.12;98169.13;1800628;78;20913;-78
2021/05/03 06:17:11;;;;;;;3.70;3.40;;;;;;;8.20;60.94;98173.33;1801810;78;20926;-79
2021/05/03 06:19:39;;;;;;;3.90;3.58;;;;;;;8.21;61.25;98173.69;1787856;78;21338;-79
2021/05/03 06:22:07;;;;;;;3.75;3.40;;;;;;;8.20;61.37;98178.67;1743532;81;20989;-80
2021/05/03 06:24:40;;;;;;;3.75;3.45;;;;;;;8.21;61.72;98183.05;1718998;81;21602;-81
2021/05/03 06:27:08;;;;;;;3.87;3.58;;;;;;;8.24;61.80;98186.02;1726605;82;21045;-80
2021/05/03 06:29:35;;;;;;;3.77;3.47;;;;;;;8.24;61.66;98185.53;1745541;80;21082;-78
2021/05/03 06:32:06;;;;;;;3.35;3.05;;;;;;;8.26;61.81;98188.99;1787550;78;21425;-82
2021/05/03 06:34:35;;;;;;;2.77;2.58;;;;;;;8.29;61.88;98196.83;1776638;78;20969;-79
2021/05/03 06:37:04;;;;;;;2.90;2.70;;;;;;;8.31;62.05;98200.26;1778773;78;21597;-78
2021/05/03 06:39:37;;;;;;;5.03;3.55;;;;;;;8.30;62.07;98193.17;1796994;78;21045;-79
2021/05/03 06:42:08;;;;;;;4.05;3.75;;;;;;;8.31;62.25;98197.58;1790631;78;20962;-78
2021/05/03 06:44:43;;;;;;;3.33;3.12;;;;;;;8.31;61.91;98193.56;1777531;78;21479;-78
2021/05/03 06:47:14;;;;;;;3.85;3.45;;;;;;;8.34;61.57;98196.54;1799522;78;20965;-79
2021/05/03 06:49:42;;;;;;;4.00;3.60;;;;;;;8.35;61.43;98201.41;1792682;79;21688;-79
2021/05/03 06:52:11;;;;;;;3.37;3.08;;;;;;;8.32;60.69;98199.31;1762737;80;21120;-80
2021/05/03 06:54:44;;;;;;;3.47;3.05;;;;;;;8.29;60.86;98205.31;1799457;78;20996;-81
2021/05/03 06:57:16;;;;;;;3.85;3.30;;;;;;;8.30;61.43;98203.88;1778725;78;21808;-79
2021/05/03 06:59:49;;;;;;;4.15;3.20;;;;;;;8.30;61.62;98195.85;1807284;78;21505;-80
2021/05/03 07:02:17;;;;;;;4.30;3.87;;;;;;;8.31;61.49;98190.89;1794344;78;21620;-78
2021/05/03 07:04:50;;;;;;;3.95;3.65;;;;;;;8.35;61.15;98198.23;1785137;78;21000;-80
2021/05/03 07:07:22;;;;;;;3.70;3.40;;;;;;;8.38;61.30;98201.20;1795428;78;21054;-78
2021/05/03 07:09:50;;;;;;;3.98;3.62;;;;;;;8.44;61.52;98208.88;1798441;79;21205;-80
2021/05/03 07:12:22;;;;;;;3.27;2.98;;;;;;;8.50;60.97;98213.84;1803866;78;21005;-79
2021/05/03 07:14:50;;;;;;;3.40;2.92;;;;;;;8.59;60.76;98211.05;1790849;78;21376;-81
2021/05/03 07:17:17;;;;;;;4.10;3.62;;;;;;;8.66;60.88;98218.59;1805340;78;21073;-83
2021/05/03 07:19:47;;;;;;;5.47;3.65;;;;;;;8.73;59.72;98220.87;1797394;78;21105;-78
2021/05/03 07:22:22;;;;;;;3.70;3.22;;;;;;;8.82;60.16;98217.59;1770968;79;22364;-82
2021/05/03 07:24:52;;;;;;;4.67;3.33;;;;;;;8.90;60.18;98215.27;1802893;78;21138;-82
2021/05/03 07:27:21;;;;;;;3.50;3.20;;;;;;;8.93;59.76;98203.02;1797446;78;20958;-81
2021/05/03 07:29:52;;;;;;;3.25;3.02;;;;;;;8.97;59.35;98204.55;1808066;78;21175;-79
2021/05/03 07:32:19;;;;;;;4.83;2.80;;;;;;;9.01;58.79;98207.88;1783594;78;21063;-78
2021/05/03 07:34:52;;;;;;;2.27;2.08;;;;;;;9.01;58.05;98207.38;1778741;79;21810;-78
2021/05/03 07:37:20;;;;;;;3.65;2.87;;;;;;;9.01;57.05;98219.44;1791733;78;20938;-79
2021/05/03 07:39:53;;;;;;;5.00;2.47;;;;;;;9.01;57.26;98210.06;1805360;78;21084;-79
2021/05/03 07:42:23;;;;;;;2.65;2.45;;;;;;;9.02;57.14;98222.51;1788474;78;21066;-81
2021/05/03 07:44:52;;;;;;;5.87;2.65;;;;;;;9.05;57.57;98210.73;1779740;79;21245;-79
2021/05/03 07:47:20;;;;;;;3.30;3.00;;;;;;;9.09;57.18;98211.39;1789250;78;21367;-80
2021/05/03 07:49:49;;;;;;;2.55;2.35;;;;;;;9.14;56.82;98214.61;1795290;78;20961;-79
2021/05/03 07:52:20;;;;;;;3.55;2.77;;;;;;;9.19;56.00;98199.08;1787669;78;21581;-79
2021/05/03 07:54:52;;;;;;;4.95;2.90;;;;;;;9.30;56.89;98222.48;1804157;79;20998;-79
2021/05/03 07:57:22;;;;;;;2.95;1.98;;;;;;;9.42;56.42;98220.81;1809319;77;21617;-80
2021/05/03 07:59:50;;;;;;;2.12;1.92;;;;;;;9.53;55.11;98222.28;1799534;78;21375;-81
2021/05/03 08:02:18;;;;;;;5.95;2.55;;;;;;;9.63;54.35;98218.48;1787071;78;21513;-79
2021/05/03 08:04:49;;;;;;;3.47;2.42;;;;;;;9.72;54.66;98231.27;1781878;78;20994;-81
2021/05/03 08:07:18;;;;;;;1.90;1.67;;;;;;;9.80;53.63;98239.64;1809415;78;20922;-80
2021/05/03 08:09:47;;;;;;;2.10;1.80;;;;;;;9.92;53.45;98239.29;1804600;78;21017;-80
2021/05/03 08:12:17;;;;;;;2.20;2.00;;;;;;;9.96;53.01;98222.00;1791745;78;21501;-80
2021/05/03 08:14:49;;;;;;;2.70;2.00;;;;;;;10.04;51.99;98214.30;1808476;78;21028;-81
2021/05/03 08:17:17;;;;;;;1.85;1.75;;;;;;;10.07;50.28;98230.15;1792577;78;21689;-80
2021/05/03 08:19:46;;;;;;;1.40;1.30;;;;;;;10.11;50.41;98221.42;1796929;78;21565;-79
2021/05/03 08:22:15;;;;;;;1.90;1.60;;;;;;;10.18;49.65;98212.45;1778724;78;21025;-82
2021/05/03 08:24:46;;;;;;;2.37;1.80;;;;;;;10.31;49.71;98220.87;1791198;78;22320;-79
2021/05/03 08:27:18;;;;;;;5.72;1.77;;;;;;;10.51;49.84;98215.91;1772657;78;21561;-82
2021/05/03 08:29:46;;;;;;;1.22;1.10;;;;;;;10.74;49.75;98218.78;1786856;78;21561;-80
2021/05/03 08:32:15;;;;;;;1.60;1.50;;;;;;;10.89;48.06;98220.32;1806256;78;21061;-80
2021/05/03 08:34:44;;;;;;;1.60;1.42;;;;;;;10.99;47.47;98224.56;1777372;78;21605;-80
2021/05/03 08:37:14;;;;;;;1.70;1.60;;;;;;;11.00;47.61;98218.19;1808466;78;21343;-80
2021/05/03 08:39:45;;;;;;;2.50;1.67;;;;;;;11.04;48.27;98234.47;1790280;78;20961;-79
2021/05/03 08:42:15;;;;;;;1.25;1.15;;;;;;;11.05;49.74;98237.52;1815265;78;20926;-80
2021/05/03 08:44:47;;;;;;;3.47;1.87;;;;;;;11.10;49.83;98228.65;1813881;78;21076;-78
2021/05/03 08:47:17;;;;;;;3.72;2.10;;;;;;;11.13;49.05;98217.67;1809130;79;21247;-78
2021/05/03 08:49:57;;;;;;;1.65;1.55;;;;;;;11.12;47.72;98224.00;1779622;78;21452;-79
2021/05/03 08:52:41;;;;;;;1.70;1.60;;;;;;;11.16;47.66;98238.95;1725947;82;21070;-81
2021/05/03 08:54:58;;;;;;;1.75;1.62;;;;;;;11.19;48.41;98236.49;1714259;82;21492;-79
2021/05/03 08:57:27;;;;;;;1.82;1.60;;;;;;;11.23;49.61;98240.68;1723056;80;21042;-84
2021/05/03 08:59:55;;;;;;;2.60;1.82;;;;;;;11.33;49.02;98239.50;1757487;80;21004;-81
2021/05/03 09:02:26;;;;;;;2.42;1.50;;;;;;;11.52;49.87;98229.05;1754235;80;21087;-80
2021/05/03 09:04:56;;;;;;;1.45;1.30;;;;;;;11.77;49.11;98224.50;1755953;80;20990;-79
2021/05/03 09:07:27;;;;;;;1.60;1.50;;;;;;;12.07;49.83;98231.20;1756383;80;21043;-80
2021/05/03 09:09:59;;;;;;;1.62;1.50;;;;;;;12.32;45.85;98233.32;1762819;80;21132;-80
2021/05/03 09:12:28;;;;;;;1.75;1.65;;;;;;;12.47;44.12;98223.53;1751250;80;21469;-79
2021/05/03 09:15:02;;;;;;;1.75;1.50;;;;;;;12.57;44.18;98224.98;1772517;80;21430;-80
2021/05/03 09:17:40;;;;;;;1.70;1.60;;;;;;;12.64;45.21;98220.83;1755587;80;21578;-82
2021/05/03 09:20:16;;;;;;;1.30;1.20;;;;;;;12.69;44.51;98220.93;1743736;80;21417;-81
2021/05/03 09:23:05;;;;;;;1.87;1.52;;;;;;;12.76;44.27;98222.16;1764320;80;20952;-80
2021/05/03 09:25:37;;;;;;;2.12;1.15;;;;;;;12.78;44.21;98228.27;1805649;78;20949;-81
2021/05/03 09:28:20;;;;;;;1.40;1.30;;;;;;;12.74;43.76;98229.48;1798291;78;21322;-81
2021/05/03 09:31:00;;;;;;;1.60;1.50;;;;;;;12.71;42.99;98217.14;1771111;78;21882;-81
2021/05/03 09:33:35;;;;;;;2.00;1.50;;;;;;;12.67;44.14;98226.44;1781436;78;21001;-85
2021/05/03 09:36:13;;;;;;;1.52;1.32;;;;;;;12.67;43.47;98218.36;1777867;78;21034;-81
2021/05/03 09:38:47;;;;;;;;;;;;;;;12.63;42.40;98223.15;1806258;79;21444;-81
2021/05/03 09:41:28;;;;;;;1.15;1.10;;;;;;;12.67;42.72;98209.43;1797230;78;21313;-82
2021/05/03 09:44:07;;;;;;;1.35;1.25;;;;;;;12.69;41.82;98211.50;1791794;78;21068;-80
2021/05/03 09:46:51;;;;;;;1.30;1.20;;;;;;;12.73;43.00;98219.21;1784646;78;21001;-83
2021/05/03 09:49:19;;;;;;;1.55;1.00;;;;;;;12.87;44.51;98218.09;1802723;78;20961;-81
2021/05/03 09:51:59;;;;;;;2.83;1.20;;;;;;;13.08;44.43;98208.72;1807538;78;20918;-84
2021/05/03 09:54:31;;;;;;;1.00;0.90;;;;;;;13.09;41.53;98219.03;1769807;78;21184;-81
2021/05/03 09:57:10;;;;;;;1.10;0.93;;;;;;;13.15;40.68;98214.48;1786105;78;21651;-82
2021/05/03 09:59:53;;;;;;;1.35;0.85;;;;;;;13.19;40.07;98209.19;1786858;78;20950;-81
2021/05/03 10:02:31;;;;;;;0.90;0.90;;;;;;;13.23;39.52;98212.00;1794385;78;20894;-81
2021/05/03 10:05:10;;;;;;;2.58;1.10;;;;;;;13.23;39.33;98210.65;1770410;78;21009;-80
2021/05/03 10:07:36;;;;;;;0.80;0.80;;;;;;;13.30;40.33;98211.83;1793971;77;21374;-80
2021/05/03 10:10:12;;;;;;;0.80;0.80;;;;;;;13.33;38.47;98196.77;1808775;78;21088;-81
2021/05/03 10:12:41;;;;;;;4.50;1.20;;;;;;;13.29;37.53;98212.84;1809117;78;20941;-81
2021/05/03 10:15:13;;;;;;;0.98;0.70;;;;;;;13.39;39.26;98196.77;1786811;78;21623;-82
2021/05/03 10:17:44;;;;;;;1.00;0.85;;;;;;;13.46;37.82;98197.94;1777870;78;21144;-80
2021/05/03 10:20:14;;;;;;;2.58;0.75;;;;;;;13.53;38.27;98202.34;1789788;78;22233;-81
2021/05/03 10:22:43;;;;;;;1.15;0.70;;;;;;;13.57;37.19;98207.83;1767064;79;21021;-81
2021/05/03 10:25:17;;;;;;;0.78;0.70;;;;;;;13.63;37.92;98197.87;1804191;78;21609;-83
2021/05/03 10:27:50;;;;;;;4.45;0.85;;;;;;;13.61;35.49;98205.25;1761269;79;21683;-80
2021/05/03 10:30:23;;;;;;;0.78;0.60;;;;;;;13.61;35.92;98199.00;1811235;78;21094;-79
2021/05/03 10:33:09;;;;;;;1.10;0.80;;;;;;;13.66;36.79;98208.91;1791636;78;21571;-80
2021/05/03 10:35:42;;;;;;;2.27;1.17;;;;;;;13.65;37.88;98201.28;1784702;78;20993;-77
2021/05/03 10:38:36;;;;;;;3.10;0.85;;;;;;;13.50;35.58;98206.16;1808390;79;21606;-79
2021/05/03 10:41:24;;;;;;;0.75;0.62;;;;;;;13.34;35.57;98179.62;1799543;78;20910;-80
2021/05/03 10:43:53;;;;;;;1.22;0.80;;;;;;;13.23;35.94;98206.61;1802801;78;21037;-80
2021/05/03 10:52:09;;;;;;;0.93;0.78;;;;;;;13.18;37.15;98206.11;1807544;78;21060;-81
2021/05/03 10:54:40;;;;;;;0.70;0.70;;;;;;;13.26;37.55;98198.27;1804597;78;21483;-81
2021/05/03 10:57:18;;;;;;;1.40;1.10;;;;;;;13.30;37.48;98209.13;1787531;78;21009;-80
2021/05/03 10:59:55;;;;;;;0.80;0.80;;;;;;;13.44;38.05;98189.63;1794669;78;21082;-80
2021/05/03 11:02:26;;;;;;;1.37;0.82;;;;;;;13.52;37.64;98203.33;1803676;78;21132;-81
2021/05/03 11:05:26;;;;;;;0.60;0.60;;;;;;;13.52;37.37;98191.18;1800253;78;21605;-80
2021/05/03 11:08:09;;;;;;;1.05;0.47;;;;;;;13.57;38.21;98202.94;1799111;78;21005;-80
2021/05/03 11:11:02;;;;;;;0.72;0.72;;;;;;;13.58;36.72;98197.41;1776942;78;21096;-83
2021/05/03 11:14:00;;;;;;;2.65;0.80;;;;;;;13.60;35.90;98197.28;1784308;78;22372;-78
2021/05/03 11:16:33;;;;;;;1.62;0.70;;;;;;;13.51;35.05;98191.69;1789748;78;21582;-80
2021/05/03 11:19:52;;;;;;;2.55;1.00;;;;;;;13.50;35.53;98171.58;1806304;79;21446;-81
2021/05/03 11:22:19;;;;;;;1.12;0.93;;;;;;;13.46;36.75;98180.91;1691656;83;21623;-79
2021/05/03 11:24:59;;;;;;;1.45;0.80;;;;;;;13.40;36.29;98198.48;1796606;78;21048;-80
2021/05/03 11:27:45;;;;;;;0.98;0.53;;;;;;;13.34;36.02;98174.72;1794758;78;22281;-80
2021/05/03 11:30:28;;;;;;;4.87;0.70;;;;;;;13.33;36.76;98179.24;1797834;78;21528;-81
2021/05/03 11:32:55;;;;;;;3.20;0.90;;;;;;;13.40;35.67;98182.77;1795222;78;21492;-80
2021/05/03 11:38:04;;;;;;;3.20;0.68;;;;;;;13.38;32.39;98177.51;1797576;78;21124;-82
2021/05/03 11:46:33;;;;;;;3.52;0.70;;;;;;;13.53;33.75;98186.16;1786919;78;21072;-82
2021/05/03 11:49:17;;;;;;;1.65;0.72;;;;;;;13.52;33.16;98170.95;1808258;79;20937;-78
2021/05/03 11:51:57;;;;;;;1.02;0.50;;;;;;;13.54;33.72;98178.41;1789798;78;21001;-80
2021/05/03 11:54:34;;;;;;;1.72;0.55;;;;;;;13.60;34.06;98169.80;1803785;78;21372;-81
2021/05/03 11:57:07;;;;;;;1.62;0.68;;;;;;;13.68;33.33;98163.23;1778610;78;21339;-81
2021/05/03 11:59:37;;;;;;;1.75;0.93;;;;;;;13.72;33.15;98174.14;1810696;78;20921;-78
2021/05/03 12:02:09;;;;;;;0.53;0.47;;;;;;;13.73;31.17;98174.52;1799363;78;21013;-79
2021/05/03 12:04:44;;;;;;;2.67;0.68;;;;;;;13.74;30.25;98169.97;1798813;78;21574;-80
2021/05/03 12:07:24;;;;;;;4.17;1.35;;;;;;;13.78;30.42;98181.34;1804314;77;21447;-80
2021/05/03 12:10:17;;;;;;;2.37;0.93;;;;;;;13.72;32.34;98186.29;1778155;78;21002;-79
2021/05/03 12:12:54;;;;;;;0.90;0.90;;;;;;;13.76;36.10;98195.48;1796101;78;21427;-78
2021/05/03 12:15:28;;;;;;;2.87;1.25;;;;;;;13.70;36.73;98185.58;1760322;79;21016;-78
2021/05/03 12:18:02;;;;;;;2.35;0.90;;;;;;;13.59;36.31;98201.83;1807948;78;20985;-81
2021/05/03 12:20:33;;;;;;;1.20;0.72;;;;;;;13.52;36.73;98204.67;1794719;78;21334;-79
2021/05/03 12:23:10;;;;;;;3.22;0.80;;;;;;;13.41;35.87;98208.78;1806115;78;21416;-79
2021/05/03 12:25:43;;;;;;;0.60;0.60;;;;;;;13.32;36.35;98206.31;1782750;78;21860;-80